DAUU

Ain el Beida Airport

Ouargla, Algeria
METAR DAUU 260400Z 10015KT CAVOK 28/02 Q1009
Observed Flight Rules
May-26 @ 04:00 UTC (25 minutes ago) Visual Flight Rules
Wind Visibility Clouds
100° at 15 knots 10,000+ meters
  • Clear skies
Temperatures Readings
Current 28°C / 82°F
Dewpoint 2°C / 36°F
Humidity 19%
Altimeter 29.79" Hg
Pressure 1009 hPa
Elevation 141
METAR DAUU 260400Z 10015KT CAVOK 28/02 Q1009
Observed Flight Rules
May-26 @ 04:00 UTC
(25 minutes ago)
VFR
Wind Visibility
100° at 15 knots 10,000+ meters
Clouds
  • Clear skies
Temperature Dewpoint
28°C / 82°F 2°C / 36°F
Humidity Altimeter Pressure
19% 29.79" Hg 1009 hPa